Frem Nordica — OVIL2 — position and weather

sailwx.info

Track history (hours):
 
Tides and Currents Weather Stations Pressure Air Temp Water Temp Dewpoint Dewpoint Depression Visibility Wind Speed Wind Dir Waves Ship Positions

Frem Nordica

Last reported at 2016-May-27 02:15 UTC. Time now 2016-May-27 08:29 UTC.
Position N 55°13' E 012°10'.

Length 79 m; draft 3 m.

Type: Ship. MMSI: 220439000.

Date/timePositionNaut miles runAvg speedWind from/ knotsBaromVisibWave heightAir tempDewpointWater temp
2016-May-27 02:15N 55°13' E 012°10'2 3.2
2016-May-27 01:33N 55°12' E 012°13'9 8.9
2016-May-27 00:33N 55°15' E 012°27'9 9.2
2016-May-26 23:33N 55°24' E 012°32'9 8.9
2016-May-26 22:33N 55°32' E 012°40'8 8.2
2016-May-26 21:33N 55°40' E 012°41'9 8.9
2016-May-26 20:33N 55°49' E 012°40'9 9.1
2016-May-26 19:34N 55°58' E 012°38'8 7.7
2016-May-26 18:33N 56°05' E 012°34'9 8.7
2016-May-26 17:32N 56°10' E 012°21'8 8.1
2016-May-26 16:33N 56°08' E 012°07'39 0.9
2016-May-24 19:33N 56°46' E 011°50'9 8.6
2016-May-24 18:33N 56°54' E 011°45'8 8.3
2016-May-24 17:33N 57°02' E 011°40'10 8.3
2016-May-24 16:20N 57°12' E 011°35'6 8.0
2016-May-24 15:34N 57°17' E 011°31'8 7.7
2016-May-24 14:33N 57°25' E 011°27'8 7.7
2016-May-24 13:33N 57°32' E 011°34'8 7.9
2016-May-24 12:33N 57°38' E 011°41'5 4.7
2016-May-24 11:33N 57°42' E 011°48'0 0.0
2016-May-24 10:33N 57°42' E 011°48'0 0.0
2016-May-24 09:33N 57°42' E 011°48'0 0.0
2016-May-24 08:33N 57°42' E 011°48'0 0.0
2016-May-24 07:33N 57°42' E 011°48'0 0.0
2016-May-24 06:33N 57°42' E 011°48'0 0.0
2016-May-24 05:33N 57°42' E 011°48'0 0.0
2016-May-24 04:33N 57°42' E 011°48'0 0.0
2016-May-24 03:34N 57°42' E 011°48'0 0.0
2016-May-24 02:34N 57°42' E 011°48'0 0.0
2016-May-24 01:34N 57°42' E 011°48'0 0.0
2016-May-24 00:34N 57°42' E 011°48'0 0.0
2016-May-23 23:34N 57°42' E 011°48'0 0.0
2016-May-23 22:34N 57°42' E 011°48'0 0.0
2016-May-23 21:34N 57°42' E 011°48'0 0.0
2016-May-23 20:34N 57°42' E 011°48'0 0.0
2016-May-23 19:34N 57°42' E 011°48'0 0.0
2016-May-23 18:34N 57°42' E 011°48'0 0.4
2016-May-23 17:34N 57°41' E 011°47'7 6.6
2016-May-23 16:33N 57°43' E 011°59'1 1.2
2016-May-23 15:32N 57°44' E 012°00'0 0.0
2016-May-23 14:32N 57°44' E 012°00'0 0.0
2016-May-23 13:32N 57°44' E 012°00'0 0.0
2016-May-23 12:32N 57°44' E 012°00'0 0.0
2016-May-23 11:32N 57°44' E 012°00'0 0.0
2016-May-23 10:32N 57°44' E 012°00'0 0.0
2016-May-23 09:32N 57°44' E 012°00'0 0.0
2016-May-23 08:32N 57°44' E 012°00'0 0.0
2016-May-23 07:33N 57°44' E 012°00'0 0.0
2016-May-23 06:33N 57°44' E 012°00'0 0.0
2016-May-23 05:33N 57°44' E 012°00'0 0.0
2016-May-23 04:32N 57°44' E 012°00'0 0.0
2016-May-23 03:32N 57°44' E 012°00'0 0.0
2016-May-23 02:33N 57°44' E 012°00'0 0.0
2016-May-23 01:33N 57°44' E 012°00'0 0.0
2016-May-23 00:32N 57°44' E 012°00'0 0.0
2016-May-22 23:33N 57°44' E 012°00'0 0.0
2016-May-22 22:32N 57°44' E 012°00'1 1.2
2016-May-22 21:34N 57°43' E 011°59'6 5.5
2016-May-22 20:33N 57°41' E 011°50'1 1.1
2016-May-22 19:32N 57°40' E 011°48'0 0.0
2016-May-22 18:32N 57°40' E 011°48'0 0.0
2016-May-22 17:32N 57°40' E 011°48'0 0.0
2016-May-22 16:32N 57°40' E 011°48'0 0.1
2016-May-22 15:32N 57°40' E 011°48'0 0.0
2016-May-22 14:33N 57°40' E 011°48'0 0.0
2016-May-22 13:33N 57°40' E 011°48'0 0.0
2016-May-22 12:33N 57°40' E 011°48'0 0.0
2016-May-22 11:33N 57°40' E 011°48'0 0.0
2016-May-22 10:33N 57°40' E 011°48'0 0.1
2016-May-22 09:33N 57°40' E 011°48'0 0.0
2016-May-22 08:33N 57°40' E 011°48'0 0.0
2016-May-22 07:33N 57°40' E 011°48'0 0.0
2016-May-22 06:33N 57°40' E 011°48'0 0.0
2016-May-22 05:33N 57°40' E 011°48'0 0.0
2016-May-22 04:33N 57°40' E 011°48'0 0.0
2016-May-22 03:33N 57°40' E 011°48'0 0.0
2016-May-22 02:33N 57°40' E 011°48'0 0.0
2016-May-22 01:33N 57°40' E 011°48'0 0.0
2016-May-22 00:33N 57°40' E 011°48'0 0.0
2016-May-21 23:33N 57°40' E 011°48'0 0.0
2016-May-21 22:33N 57°40' E 011°48'0 0.0
2016-May-21 21:33N 57°40' E 011°48'0 0.0
2016-May-21 20:33N 57°40' E 011°48'0 0.0
2016-May-21 19:33N 57°40' E 011°48'0 0.0
2016-May-21 18:28N 57°40' E 011°48'0 0.1
2016-May-21 17:34N 57°40' E 011°48'8 7.7
2016-May-21 16:34N 57°34' E 011°39'9 9.0
2016-May-21 15:34N 57°25' E 011°39'9 9.1
2016-May-21 14:33N 57°16' E 011°39'11 8.7
2016-May-21 13:15N 57°05' E 011°42'6 8.9
2016-May-21 12:32N 56°59' E 011°46'9 8.8
2016-May-21 11:33N 56°51' E 011°52'8 8.2
2016-May-21 10:33N 56°43' E 011°56'104 7.8
2016-May-20 21:19N 55°04' E 011°03'7 9.3
2016-May-20 20:34N 54°57' E 010°58'10 9.9
2016-May-20 19:33N 54°48' E 010°53'9 9.3
2016-May-20 18:34N 54°42' E 011°06'9 9.1
2016-May-20 17:34N 54°37' E 011°19'9 8.6
2016-May-20 16:34N 54°32' E 011°30'8 8.1
2016-May-20 15:34N 54°24' E 011°34'8 8.3
2016-May-20 14:33N 54°16' E 011°32'16 7.9
2016-May-20 12:34N 54°01' E 011°21'7 7.0
2016-May-20 11:34N 53°55' E 011°26'1 1.1
2016-May-20 10:32N 53°54' E 011°28'0 0.0
2016-May-20 09:30N 53°54' E 011°28'0 0.0
2016-May-20 08:33N 53°54' E 011°28'0 0.0
2016-May-20 07:33N 53°54' E 011°28'0 0.0
2016-May-20 06:27N 53°54' E 011°28'0 0.0
2016-May-20 04:33N 53°54' E 011°28'0 0.0
2016-May-20 03:33N 53°54' E 011°28'0 0.0
2016-May-20 02:33N 53°54' E 011°28'0 0.0
2016-May-20 01:33N 53°54' E 011°28'0 0.0
2016-May-20 00:27N 53°54' E 011°28'0 0.0
2016-May-19 23:32N 53°54' E 011°28'0 0.0
2016-May-19 22:33N 53°54' E 011°28'0 0.0
2016-May-19 21:33N 53°54' E 011°28'0 0.0
2016-May-19 20:33N 53°54' E 011°28'0 0.0
2016-May-19 19:30N 53°54' E 011°28'0 0.0
2016-May-19 18:33N 53°54' E 011°28'0 0.0
2016-May-19 17:33N 53°54' E 011°28'0 0.0
2016-May-19 16:33N 53°54' E 011°28'0 0.1
2016-May-19 15:33N 53°54' E 011°28'7 7.0
2016-May-19 14:33N 53°60' E 011°20'10 0.8
2016-May-19 01:33N 54°09' E 011°15'9 9.0
2016-May-19 00:32N 54°14' E 011°28'9 9.0
2016-May-18 23:33N 54°19' E 011°41'8 7.9
2016-May-18 22:33N 54°24' E 011°51'9 8.5
2016-May-18 21:33N 54°29' E 012°03'9 8.7
2016-May-18 20:33N 54°37' E 012°10'9 8.8
2016-May-18 19:33N 54°44' E 012°18'16 7.8
2016-May-18 17:27N 54°58' E 012°34'6 7.1
2016-May-18 16:32N 55°03' E 012°28'11 1.1
2016-May-18 06:15N 55°11' E 012°13'21 7.0
2016-May-18 03:15N 54°51' E 012°27'6 8.8
2016-May-18 02:33N 54°47' E 012°21'17 8.2
2016-May-18 00:31N 54°32' E 012°07'7 7.6
2016-May-17 23:33N 54°30' E 011°55'9 8.9
2016-May-17 22:33N 54°30' E 011°40'9 9.1
2016-May-17 21:33N 54°31' E 011°24'1010.2
2016-May-17 20:33N 54°35' E 011°08'10 9.8
2016-May-17 19:33N 54°35' E 010°51'25 8.4
2016-May-17 16:33N 54°23' E 010°12'3 3.1
2016-May-17 15:33N 54°22' E 010°07'  
Track history (hours):
 
Tides and Currents Weather Stations Pressure Air Temp Water Temp Dewpoint Dewpoint Depression Visibility Wind Speed Wind Dir Waves Ship Positions

Frem Nordica

Last reported at 2016-May-27 02:15 UTC. Time now 2016-May-27 08:29 UTC.
Position N 55°13' E 012°10'.

Length 79 m; draft 3 m.

Type: Ship. MMSI: 220439000.

Date/timePositionNaut miles runAvg speedWind from/ knotsBaromVisibWave heightAir tempDewpointWater temp
2016-May-27 02:15N 55°13' E 012°10'2 3.2
2016-May-27 01:33N 55°12' E 012°13'9 8.9
2016-May-27 00:33N 55°15' E 012°27'9 9.2
2016-May-26 23:33N 55°24' E 012°32'9 8.9
2016-May-26 22:33N 55°32' E 012°40'8 8.2
2016-May-26 21:33N 55°40' E 012°41'9 8.9
2016-May-26 20:33N 55°49' E 012°40'9 9.1
2016-May-26 19:34N 55°58' E 012°38'8 7.7
2016-May-26 18:33N 56°05' E 012°34'9 8.7
2016-May-26 17:32N 56°10' E 012°21'8 8.1
2016-May-26 16:33N 56°08' E 012°07'39 0.9
2016-May-24 19:33N 56°46' E 011°50'9 8.6
2016-May-24 18:33N 56°54' E 011°45'8 8.3
2016-May-24 17:33N 57°02' E 011°40'10 8.3
2016-May-24 16:20N 57°12' E 011°35'6 8.0
2016-May-24 15:34N 57°17' E 011°31'8 7.7
2016-May-24 14:33N 57°25' E 011°27'8 7.7
2016-May-24 13:33N 57°32' E 011°34'8 7.9
2016-May-24 12:33N 57°38' E 011°41'5 4.7
2016-May-24 11:33N 57°42' E 011°48'0 0.0
2016-May-24 10:33N 57°42' E 011°48'0 0.0
2016-May-24 09:33N 57°42' E 011°48'0 0.0
2016-May-24 08:33N 57°42' E 011°48'0 0.0
2016-May-24 07:33N 57°42' E 011°48'0 0.0
2016-May-24 06:33N 57°42' E 011°48'0 0.0
2016-May-24 05:33N 57°42' E 011°48'0 0.0
2016-May-24 04:33N 57°42' E 011°48'0 0.0
2016-May-24 03:34N 57°42' E 011°48'0 0.0
2016-May-24 02:34N 57°42' E 011°48'0 0.0
2016-May-24 01:34N 57°42' E 011°48'0 0.0
2016-May-24 00:34N 57°42' E 011°48'0 0.0
2016-May-23 23:34N 57°42' E 011°48'0 0.0
2016-May-23 22:34N 57°42' E 011°48'0 0.0
2016-May-23 21:34N 57°42' E 011°48'0 0.0
2016-May-23 20:34N 57°42' E 011°48'0 0.0
2016-May-23 19:34N 57°42' E 011°48'0 0.0
2016-May-23 18:34N 57°42' E 011°48'0 0.4
2016-May-23 17:34N 57°41' E 011°47'7 6.6
2016-May-23 16:33N 57°43' E 011°59'1 1.2
2016-May-23 15:32N 57°44' E 012°00'0 0.0
2016-May-23 14:32N 57°44' E 012°00'0 0.0
2016-May-23 13:32N 57°44' E 012°00'0 0.0
2016-May-23 12:32N 57°44' E 012°00'0 0.0
2016-May-23 11:32N 57°44' E 012°00'0 0.0
2016-May-23 10:32N 57°44' E 012°00'0 0.0
2016-May-23 09:32N 57°44' E 012°00'0 0.0
2016-May-23 08:32N 57°44' E 012°00'0 0.0
2016-May-23 07:33N 57°44' E 012°00'0 0.0
2016-May-23 06:33N 57°44' E 012°00'0 0.0
2016-May-23 05:33N 57°44' E 012°00'0 0.0
2016-May-23 04:32N 57°44' E 012°00'0 0.0
2016-May-23 03:32N 57°44' E 012°00'0 0.0
2016-May-23 02:33N 57°44' E 012°00'0 0.0
2016-May-23 01:33N 57°44' E 012°00'0 0.0
2016-May-23 00:32N 57°44' E 012°00'0 0.0
2016-May-22 23:33N 57°44' E 012°00'0 0.0
2016-May-22 22:32N 57°44' E 012°00'1 1.2
2016-May-22 21:34N 57°43' E 011°59'6 5.5
2016-May-22 20:33N 57°41' E 011°50'1 1.1
2016-May-22 19:32N 57°40' E 011°48'0 0.0
2016-May-22 18:32N 57°40' E 011°48'0 0.0
2016-May-22 17:32N 57°40' E 011°48'0 0.0
2016-May-22 16:32N 57°40' E 011°48'0 0.1
2016-May-22 15:32N 57°40' E 011°48'0 0.0
2016-May-22 14:33N 57°40' E 011°48'0 0.0
2016-May-22 13:33N 57°40' E 011°48'0 0.0
2016-May-22 12:33N 57°40' E 011°48'0 0.0
2016-May-22 11:33N 57°40' E 011°48'0 0.0
2016-May-22 10:33N 57°40' E 011°48'0 0.1
2016-May-22 09:33N 57°40' E 011°48'0 0.0
2016-May-22 08:33N 57°40' E 011°48'0 0.0
2016-May-22 07:33N 57°40' E 011°48'0 0.0
2016-May-22 06:33N 57°40' E 011°48'0 0.0
2016-May-22 05:33N 57°40' E 011°48'0 0.0
2016-May-22 04:33N 57°40' E 011°48'0 0.0
2016-May-22 03:33N 57°40' E 011°48'0 0.0
2016-May-22 02:33N 57°40' E 011°48'0 0.0
2016-May-22 01:33N 57°40' E 011°48'0 0.0
2016-May-22 00:33N 57°40' E 011°48'0 0.0
2016-May-21 23:33N 57°40' E 011°48'0 0.0
2016-May-21 22:33N 57°40' E 011°48'0 0.0
2016-May-21 21:33N 57°40' E 011°48'0 0.0
2016-May-21 20:33N 57°40' E 011°48'0 0.0
2016-May-21 19:33N 57°40' E 011°48'0 0.0
2016-May-21 18:28N 57°40' E 011°48'0 0.1
2016-May-21 17:34N 57°40' E 011°48'8 7.7
2016-May-21 16:34N 57°34' E 011°39'9 9.0
2016-May-21 15:34N 57°25' E 011°39'9 9.1
2016-May-21 14:33N 57°16' E 011°39'11 8.7
2016-May-21 13:15N 57°05' E 011°42'6 8.9
2016-May-21 12:32N 56°59' E 011°46'9 8.8
2016-May-21 11:33N 56°51' E 011°52'8 8.2
2016-May-21 10:33N 56°43' E 011°56'104 7.8
2016-May-20 21:19N 55°04' E 011°03'7 9.3
2016-May-20 20:34N 54°57' E 010°58'10 9.9
2016-May-20 19:33N 54°48' E 010°53'9 9.3
2016-May-20 18:34N 54°42' E 011°06'9 9.1
2016-May-20 17:34N 54°37' E 011°19'9 8.6
2016-May-20 16:34N 54°32' E 011°30'8 8.1
2016-May-20 15:34N 54°24' E 011°34'8 8.3
2016-May-20 14:33N 54°16' E 011°32'16 7.9
2016-May-20 12:34N 54°01' E 011°21'7 7.0
2016-May-20 11:34N 53°55' E 011°26'1 1.1
2016-May-20 10:32N 53°54' E 011°28'0 0.0
2016-May-20 09:30N 53°54' E 011°28'0 0.0
2016-May-20 08:33N 53°54' E 011°28'0 0.0
2016-May-20 07:33N 53°54' E 011°28'0 0.0
2016-May-20 06:27N 53°54' E 011°28'0 0.0
2016-May-20 04:33N 53°54' E 011°28'0 0.0
2016-May-20 03:33N 53°54' E 011°28'0 0.0
2016-May-20 02:33N 53°54' E 011°28'0 0.0
2016-May-20 01:33N 53°54' E 011°28'0 0.0
2016-May-20 00:27N 53°54' E 011°28'0 0.0
2016-May-19 23:32N 53°54' E 011°28'0 0.0
2016-May-19 22:33N 53°54' E 011°28'0 0.0
2016-May-19 21:33N 53°54' E 011°28'0 0.0
2016-May-19 20:33N 53°54' E 011°28'0 0.0
2016-May-19 19:30N 53°54' E 011°28'0 0.0
2016-May-19 18:33N 53°54' E 011°28'0 0.0
2016-May-19 17:33N 53°54' E 011°28'0 0.0
2016-May-19 16:33N 53°54' E 011°28'0 0.1
2016-May-19 15:33N 53°54' E 011°28'7 7.0
2016-May-19 14:33N 53°60' E 011°20'10 0.8
2016-May-19 01:33N 54°09' E 011°15'9 9.0
2016-May-19 00:32N 54°14' E 011°28'9 9.0
2016-May-18 23:33N 54°19' E 011°41'8 7.9
2016-May-18 22:33N 54°24' E 011°51'9 8.5
2016-May-18 21:33N 54°29' E 012°03'9 8.7
2016-May-18 20:33N 54°37' E 012°10'9 8.8
2016-May-18 19:33N 54°44' E 012°18'16 7.8
2016-May-18 17:27N 54°58' E 012°34'6 7.1
2016-May-18 16:32N 55°03' E 012°28'11 1.1
2016-May-18 06:15N 55°11' E 012°13'21 7.0
2016-May-18 03:15N 54°51' E 012°27'6 8.8
2016-May-18 02:33N 54°47' E 012°21'17 8.2
2016-May-18 00:31N 54°32' E 012°07'7 7.6
2016-May-17 23:33N 54°30' E 011°55'9 8.9
2016-May-17 22:33N 54°30' E 011°40'9 9.1
2016-May-17 21:33N 54°31' E 011°24'1010.2
2016-May-17 20:33N 54°35' E 011°08'10 9.8
2016-May-17 19:33N 54°35' E 010°51'25 8.4
2016-May-17 16:33N 54°23' E 010°12'3 3.1
2016-May-17 15:33N 54°22' E 010°07'  

Dump ship's entire track history